< < Back
Terminal Aerodrome Forecast


Current Version              Previous Versions:   1  2  3  4  5  6  7  8  9  

Terminal Aerodrome Forecast

634
FTUS42 KCHS 261700
TAFCHS
TAF
KCHS 261721Z 2618/2718 30012G16KT P6SM BKN009
     FM261930 29011G16KT P6SM SCT015 BKN030
     FM262200 26006KT P6SM SCT035
     FM271100 24009KT P6SM FEW050 WS015/26040KT
     FM271330 29015G25KT P6SM SKC=

Latest METAR

694
SAUS80 KWBC 261800 RRA
MTRCHS
METAR KCHS 261756Z 30009KT 10SM BKN009 OVC015 11/09 A2999 RMK AO2 SLP156
60007 T01110094 10122 20111 50019 $


USA.gov is the U.S. government's official web portal to all federal, state and local government web resources and services.